• Join FlightAware (Why Join?)
  • Login
  • US Flag 
11:21AM EDT


 

Airport Tracker/Info


-or-


 

Live Flight TrackerFlight Track Log ✈ WML35 ✈ 08-Jul-2013 ✈ KSBY - KPBI

Flight Track Log - Related Links

Times and Time Zones

All times are in EDT time to prevent confusion due to time zone crossing. See the WML35 flight status page for this flight to view local times or setup timezone preferences in your user account.

Time Position Orientation Groundspeed Altitude Reporting Facility
EDT Latitude Longitude Course Direction KTS MPH feet Rate Location/Type
07:56PM 38.2419 -75.4358 161° South 278 320 4,100  Level Washington Center
07:57PM 38.1753 -75.5150 223° Southwest 286 329 7,000 2,880 Climbing Washington Center
07:59PM 38.0522 -75.6472 220° Southwest 297 342 13,200 2,640 Climbing Washington Center
08:00PM 37.9917 -75.6972 213° Southwest 283 326 15,100 1,620 Climbing Washington Center
08:01PM 37.9186 -75.7469 208° Southwest 283 326 16,600 1,560 Climbing Washington Center
08:02PM 37.8372 -75.7994 207° Southwest 308 354 18,300 1,860 Climbing Washington Center
08:03PM 37.7558 -75.8492 206° Southwest 320 368 20,300 1,800 Climbing Washington Center
08:04PM 37.6722 -75.8989 205° Southwest 325 374 22,000 1,620 Climbing Washington Center
08:05PM 37.5886 -75.9508 206° Southwest 325 374 23,600 1,440 Climbing Washington Center
08:06PM 37.5072 -76.0028 207° Southwest 330 380 25,000 1,320 Climbing Washington Center
08:07PM 37.4236 -76.0625 210° Southwest 335 386 26,200 1,140 Climbing Washington Center
08:08PM 37.3378 -76.1222 209° Southwest 345 397 27,300 1,080 Climbing Washington Center
08:09PM 37.2478 -76.1842 209° Southwest 357 411 28,400 1,080 Climbing Washington Center
08:10PM 37.1597 -76.2433 208° Southwest 362 417 29,500 780 Climbing Washington Center
08:11PM 37.0697 -76.3103 211° Southwest 362 417 30,000 360 Climbing Washington Center
08:12PM 36.9756 -76.3769 209° Southwest 375 432 30,300 540 Climbing Washington Center
08:13PM 36.8792 -76.4436 209° Southwest 389 448 31,100 780 Climbing Washington Center
08:14PM 36.7764 -76.5022 205° Southwest 399 459 31,900 720 Climbing Washington Center
08:15PM 36.6842 -76.5503 203° Southwest 405 466 32,600 600 Climbing Washington Center
08:16PM 36.5775 -76.6058 203° Southwest 405 466 33,200 360 Climbing Washington Center
08:17PM 36.4683 -76.6586 201° Southwest 410 472 33,400 300 Climbing Washington Center
08:18PM 36.3594 -76.7164 203° Southwest 422 486 33,900 300 Climbing Washington Center
08:19PM 36.2442 -76.7742 202° Southwest 434 499 34,000  Climbing Washington Center
08:20PM 36.1289 -76.8317 202° Southwest 444 511 34,000  Level Washington Center
08:21PM 36.0050 -76.8861 200° South 458 527 34,000  Level Washington Center
08:22PM 35.8814 -76.9431 200° South 471 542 34,000  Level Washington Center
08:23PM 35.7594 -77.0100 204° Southwest 477 549 34,000  Level Washington Center
08:24PM 35.6294 -77.0742 202° Southwest 470 541 34,000 120 Level Washington Center
08:25PM 35.5017 -77.1203 196° South 470 541 34,300 420 Climbing Washington Center
08:26PM 35.3739 -77.1561 193° South 470 541 34,900 600 Climbing Washington Center
08:27PM 35.2503 -77.1894 192° South 470 541 35,500 540 Climbing Washington Center
08:28PM 35.1247 -77.2250 193° South 470 541 36,000 240 Climbing Washington Center
08:29PM 34.9989 -77.2578 192° South 470 541 36,000  Level Washington Center
08:30PM 34.8733 -77.2933 193° South 470 541 36,000 120 Level Washington Center
08:31PM 34.7600 -77.3314 195° South 470 541 36,300 240 Climbing Washington Center
08:32PM 34.6344 -77.3692 194° South 475 547 36,500 240 Climbing Washington Center
08:33PM 34.5064 -77.4067 194° South 475 547 36,800 300 Climbing Washington Center
08:34PM 34.3808 -77.4467 195° South 475 547 37,200 300 Climbing Washington Center
08:35PM 34.2550 -77.4839 194° South 470 541 37,400 180 Climbing Washington Center
08:36PM 34.1186 -77.5311 196° South 470 541 37,600 300 Climbing Washington Center
08:37PM 33.9928 -77.5758 196° South 470 541 38,000 180 Climbing Washington Center
08:38PM 33.8828 -77.6194 198° South 465 535 38,000  Level Jacksonville Center
08:39PM 33.7594 -77.6669 198° South 465 535 38,000  Level Jacksonville Center
08:40PM 33.6239 -77.7197 198° South 473 544 38,000  Level Jacksonville Center
08:41PM 33.4986 -77.7669 197° South 473 544 38,000  Level Jacksonville Center
08:42PM 33.3733 -77.8139 197° South 473 544 38,000  Level Jacksonville Center
08:43PM 33.2458 -77.8633 198° South 473 544 38,000  Level Jacksonville Center
08:44PM 33.1203 -77.9078 197° South 473 544 38,000  Level Jacksonville Center
08:45PM 32.9947 -77.9544 197° South 473 544 38,000  Level Jacksonville Center
08:46PM 32.8694 -78.0033 198° South 473 544 38,000  Level Jacksonville Center
08:47PM 32.7439 -78.0494 197° South 473 544 38,000  Level Jacksonville Center
08:48PM 32.6183 -78.0933 196° South 473 544 38,000  Level Jacksonville Center
08:49PM 32.4947 -78.1367 196° South 473 544 38,000  Level Jacksonville Center
08:50PM 32.3689 -78.1803 196° South 473 544 38,000  Level Jacksonville Center
08:51PM 32.2431 -78.2186 194° South 473 544 38,000  Level Jacksonville Center
08:52PM 32.1172 -78.2569 194° South 473 544 38,000  Level Jacksonville Center
08:53PM 31.9911 -78.2903 193° South 473 544 38,000  Level Jacksonville Center
08:54PM 31.8608 -78.3236 192° South 468 539 38,000  Level Jacksonville Center
08:55PM 31.7367 -78.3517 191° South 468 539 38,000  Level Jacksonville Center
08:56PM 31.6086 -78.3897 194° South 468 539 38,000  Level Jacksonville Center
08:57PM 31.4844 -78.4272 194° South 467 537 38,000  Level Jacksonville Center
08:58PM 31.3567 -78.4700 196° South 471 542 38,000  Level Jacksonville Center
08:59PM 31.2347 -78.5072 195° South 471 542 38,000  Level Jacksonville Center
09:00PM 31.1047 -78.5497 196° South 471 542 38,000  Level Jacksonville Center
09:01PM 30.9786 -78.5822 192° South 471 542 38,000  Level Jacksonville Center
09:02PM 30.8506 -78.6219 195° South 476 548 38,000  Level Jacksonville Center
09:03PM 30.7222 -78.6592 194° South 476 548 38,000  Level Jacksonville Center
09:05PM 30.5122 -78.7189 194° South 467 537 38,000  Level Miami Center
09:06PM 30.3697 -78.7572 193° South 482 555 38,000  Level Miami Center
09:07PM 30.2422 -78.8031 197° South 487 560 38,000  Level Miami Center
09:08PM 30.1164 -78.8511 198° South 487 560 38,000  Level Miami Center
09:09PM 29.9903 -78.9108 202° Southwest 487 560 38,000  Level Miami Center
09:10PM 29.8667 -78.9589 199° South 482 555 38,000  Level Miami Center
09:11PM 29.7281 -79.0183 200° South 482 555 38,000  Level Miami Center
09:12PM 29.6128 -79.0589 197° South 482 555 38,000  Level Miami Center
09:13PM 29.5014 -79.1258 208° Southwest 482 555 38,000  Level Miami Center
09:14PM 29.3631 -79.1586 192° South 487 560 38,000  Level Miami Center
09:15PM 29.2289 -79.1939 193° South 491 565 38,000  Level Miami Center
09:16PM 29.0989 -79.2339 195° South 486 559 38,000 -600 Level Miami Center
09:17PM 28.9711 -79.2739 195° South 481 554 36,900 -1,620 Descending Miami Center
09:18PM 28.8369 -79.3136 195° South 486 559 34,800 -1,920 Descending Miami Center
09:19PM 28.7028 -79.3533 195° South 491 565 33,100 -1,500 Descending Miami Center
09:21PM 28.5568 -79.3857 191° South  Level FlightAware Approximate
09:21PM 28.4486 -79.4372 191° South 483 556 30,400  Level Miami Center
09:22PM 28.3267 -79.4817 198° South 472 543 28,300 -2,400 Descending Miami Center
09:23PM 28.1967 -79.5258 197° South 472 543 25,600 -2,700 Descending Miami Center
09:24PM 28.0703 -79.5769 200° South 478 550 22,900 -2,700 Descending Miami Center
09:25PM 27.9464 -79.6256 199° South 484 557 20,300 -2,580 Descending Miami Center
09:26PM 27.8158 -79.6719 197° South 467 537 17,800 -2,280 Descending Miami Center
09:27PM 27.7044 -79.7183 200° South 448 516 15,800 -2,100 Descending Miami Center
09:28PM 27.6056 -79.7556 198° South 428 493 13,600 -2,220 Descending Miami Center
09:29PM 27.5044 -79.7953 199° South 407 468 11,400 -2,340 Descending Miami Center
09:30PM 27.3950 -79.8347 198° South 390 449 9,000 -1,740 Descending Miami Center
09:31PM 27.2983 -79.8694 198° South 366 421 8,000 -540 Descending Miami Center
09:32PM 27.2183 -79.9025 200° South 339 390 8,000  Level Miami Center
09:33PM 27.1508 -79.9286 199° South 306 352 8,000 -480 Level Miami Center
09:34PM 27.0708 -79.9686 204° Southwest 301 346 7,100 -1,200 Descending Miami Center
09:35PM 26.9903 -80.0153 207° Southwest 301 346 5,600 -1,560 Descending Miami Center
09:36PM 26.9183 -80.0553 206° Southwest 301 346 4,000 -1,680 Descending Miami Center
09:37PM 26.8508 -80.0953 208° Southwest 294 338 2,300 -1,200 Descending Miami Center
09:38PM 26.8042 -80.1244 209° Southwest 246 283 1,700 -600 Descending Miami Center
09:40PM 26.6832 -80.0956 264° West  Level Estimated
09:47PM 26.6832 -80.0956 110° East  Level Estimated
09:48PM 26.6832 -80.0956 110° East  Level Estimated
09:49PM 26.6832 -80.0956 110° East  Level Estimated